Time;durP1;ratioP1;P1;durP2;ratioP2;P2;SDS_P1;SDS_P2;PMS_P1;PMS_P2;Temp;Humidity;BMP_temperature;BMP_pressure;BME280_temperature;BME280_humidity;BME280_pressure;Samples;Min_cycle;Max_cycle;Signal;HPM_P1;HPM_P2
2021/03/05 00:00:08;;;;;;;70.53;25.63;;;4.10;99.90;;;;;;4934596;29;20210;-70
2021/03/05 00:02:39;;;;;;;68.30;24.67;;;4.10;99.90;;;;;;4971546;28;20252;-71
2021/03/05 00:05:07;;;;;;;65.47;25.07;;;4.10;99.90;;;;;;4934378;29;20218;-71
2021/03/05 00:07:34;;;;;;;78.40;27.87;;;4.10;99.90;;;;;;4953973;29;20228;-71
2021/03/05 00:10:01;;;;;;;80.77;29.67;;;4.10;99.90;;;;;;4953318;28;20213;-70
2021/03/05 00:12:27;;;;;;;75.70;27.53;;;4.00;99.90;;;;;;4953304;28;20207;-71
2021/03/05 00:14:54;;;;;;;68.97;25.50;;;4.00;99.90;;;;;;4953779;29;20215;-71
2021/03/05 00:17:22;;;;;;;60.27;23.33;;;4.00;99.90;;;;;;4935693;29;20214;-71
2021/03/05 00:19:48;;;;;;;64.00;24.23;;;3.90;99.90;;;;;;4916502;29;20199;-70
2021/03/05 00:22:15;;;;;;;59.57;21.83;;;4.00;99.90;;;;;;4950091;29;20225;-70
2021/03/05 00:24:41;;;;;;;56.80;21.97;;;4.00;99.90;;;;;;4953370;29;20213;-71
2021/03/05 00:27:08;;;;;;;56.07;22.30;;;4.00;99.90;;;;;;4953390;28;20683;-71
2021/03/05 00:29:35;;;;;;;47.13;19.80;;;4.10;99.90;;;;;;4936658;29;20205;-71
2021/03/05 00:32:01;;;;;;;52.30;20.13;;;4.10;99.90;;;;;;4972471;28;20204;-70
2021/03/05 00:34:29;;;;;;;50.77;20.47;;;4.10;99.90;;;;;;4972670;28;20223;-70
2021/03/05 00:36:55;;;;;;;39.80;17.77;;;4.20;99.90;;;;;;4988771;28;20531;-71
2021/03/05 00:39:22;;;;;;;39.20;16.40;;;4.20;99.90;;;;;;4992368;28;20229;-70
2021/03/05 00:41:49;;;;;;;38.27;16.07;;;4.20;99.90;;;;;;5008395;28;20716;-71
2021/03/05 00:44:15;;;;;;;43.73;17.43;;;4.30;99.90;;;;;;4991773;28;20231;-70
2021/03/05 00:46:42;;;;;;;42.13;16.63;;;4.30;99.90;;;;;;5011422;28;20203;-70
2021/03/05 00:49:09;;;;;;;38.83;16.20;;;4.40;99.90;;;;;;4991727;28;20654;-71
2021/03/05 00:51:37;;;;;;;38.70;16.27;;;4.40;99.90;;;;;;4972195;28;20560;-70
2021/03/05 00:54:04;;;;;;;40.90;15.60;;;4.40;99.90;;;;;;4972510;28;20299;-71
2021/03/05 00:56:30;;;;;;;36.90;15.30;;;4.50;99.90;;;;;;4979415;28;20314;-70
2021/03/05 00:58:57;;;;;;;38.13;16.67;;;4.50;99.90;;;;;;4972271;28;20204;-71
2021/03/05 01:01:29;;;;;;;43.63;17.10;;;4.50;99.90;;;;;;4953503;29;20209;-71
2021/03/05 01:03:55;;;;;;;41.87;18.13;;;4.50;99.90;;;;;;4900838;29;20227;-71
2021/03/05 01:06:31;;;;;;;39.57;17.83;;;4.40;99.90;;;;;;4896476;29;20234;-71
2021/03/05 01:09:05;;;;;;;38.60;16.90;;;4.40;99.90;;;;;;4914689;29;20639;-71
2021/03/05 01:11:32;;;;;;;42.33;17.57;;;4.40;99.90;;;;;;4915256;29;20336;-71
2021/03/05 01:13:59;;;;;;;40.93;17.67;;;4.30;99.90;;;;;;4914816;29;20207;-71
2021/03/05 01:16:25;;;;;;;40.73;17.70;;;4.30;99.90;;;;;;4933900;29;20257;-71
2021/03/05 01:18:52;;;;;;;43.63;17.77;;;4.30;99.90;;;;;;4919077;29;20210;-70
2021/03/05 01:21:19;;;;;;;41.83;17.07;;;4.30;99.90;;;;;;4936805;29;20554;-70
2021/03/05 01:23:46;;;;;;;42.03;16.77;;;4.30;99.90;;;;;;4956194;29;20290;-71
2021/03/05 01:26:13;;;;;;;35.13;14.87;;;4.20;99.90;;;;;;4956410;28;20256;-71
2021/03/05 01:28:45;;;;;;;37.73;16.50;;;4.20;99.90;;;;;;4975079;28;20331;-71
2021/03/05 01:31:11;;;;;;;37.83;17.00;;;4.20;99.90;;;;;;5015328;28;20199;-71
2021/03/05 01:33:38;;;;;;;41.50;16.83;;;4.20;99.90;;;;;;4994291;28;20605;-71
2021/03/05 01:36:05;;;;;;;43.10;16.97;;;4.10;99.90;;;;;;4995218;28;20203;-71
2021/03/05 01:38:32;;;;;;;37.30;16.57;;;4.00;99.90;;;;;;4976069;28;20705;-71
2021/03/05 01:40:59;;;;;;;34.47;14.73;;;4.00;99.90;;;;;;4975902;28;20216;-71
2021/03/05 01:43:29;;;;;;;33.97;14.00;;;4.00;99.90;;;;;;4971004;28;20635;-70
2021/03/05 01:45:56;;;;;;;33.83;14.13;;;4.00;99.90;;;;;;4956670;28;20309;-71
2021/03/05 01:48:23;;;;;;;32.27;14.50;;;3.90;99.90;;;;;;5009773;28;20202;-70
2021/03/05 01:50:58;;;;;;;36.53;14.87;;;3.90;99.90;;;;;;5014608;28;20207;-70
2021/03/05 01:53:25;;;;;;;32.90;13.87;;;3.90;99.90;;;;;;5014445;28;20215;-71
2021/03/05 01:55:52;;;;;;;38.33;15.57;;;3.90;99.90;;;;;;5014482;28;20238;-71
2021/03/05 01:58:18;;;;;;;35.23;15.40;;;3.90;99.90;;;;;;4995143;28;20258;-70
2021/03/05 02:00:49;;;;;;;39.67;16.50;;;3.90;99.90;;;;;;4994770;28;20204;-71
2021/03/05 02:03:16;;;;;;;42.10;17.40;;;3.90;99.90;;;;;;4994998;28;20223;-71
2021/03/05 02:05:43;;;;;;;35.90;16.07;;;3.90;99.90;;;;;;5013365;28;20202;-71
2021/03/05 02:08:11;;;;;;;36.10;14.93;;;3.80;99.90;;;;;;4974984;28;20769;-71
2021/03/05 02:10:37;;;;;;;33.90;15.20;;;3.80;99.90;;;;;;4955565;29;20659;-70
2021/03/05 02:13:04;;;;;;;30.47;13.17;;;3.80;99.90;;;;;;4956564;29;20202;-71
2021/03/05 02:15:32;;;;;;;31.30;13.90;;;3.80;99.90;;;;;;4955790;29;20214;-71
2021/03/05 02:18:07;;;;;;;32.43;15.10;;;3.80;99.90;;;;;;4956816;28;20209;-70
2021/03/05 02:20:40;;;;;;;32.40;14.47;;;3.80;99.90;;;;;;4975057;28;20200;-70
2021/03/05 02:23:36;;;;;;;29.60;14.40;;;3.80;99.90;;;;;;4975338;28;20247;-71
2021/03/05 02:26:37;;;;;;;28.13;12.97;;;3.80;99.90;;;;;;4974846;28;20207;-71
2021/03/05 02:29:54;;;;;;;30.67;13.80;;;3.80;99.90;;;;;;4974128;28;20555;-71
2021/03/05 02:32:29;;;;;;;27.67;13.00;;;3.80;99.90;;;;;;4898789;29;20215;-71
2021/03/05 02:34:56;;;;;;;26.70;13.10;;;3.80;99.90;;;;;;4898599;29;20202;-70
2021/03/05 02:37:26;;;;;;;31.57;14.20;;;3.80;99.90;;;;;;4898333;29;20215;-70
2021/03/05 02:39:58;;;;;;;30.27;13.67;;;3.70;99.90;;;;;;4893836;29;20207;-70
2021/03/05 02:42:28;;;;;;;25.47;12.40;;;3.70;99.90;;;;;;4864408;29;20699;-71
2021/03/05 02:44:58;;;;;;;27.77;12.03;;;3.70;99.90;;;;;;4861188;29;20709;-71
2021/03/05 02:47:28;;;;;;;20.97;11.47;;;3.60;99.90;;;;;;4879174;29;20203;-70
2021/03/05 02:49:56;;;;;;;20.10;10.93;;;3.40;99.90;;;;;;4879420;29;20243;-71
2021/03/05 02:52:24;;;;;;;21.27;10.57;;;3.30;99.90;;;;;;4879366;29;20215;-70
2021/03/05 02:54:54;;;;;;;21.50;9.57;;;3.20;99.90;;;;;;4879212;29;20623;-70
2021/03/05 02:57:24;;;;;;;17.73;8.97;;;3.10;99.90;;;;;;4916554;29;20217;-70
2021/03/05 02:59:52;;;;;;;16.13;8.40;;;3.10;99.90;;;;;;4916558;29;20246;-70
2021/03/05 03:02:24;;;;;;;20.83;9.90;;;3.10;99.90;;;;;;4878577;29;20662;-71
2021/03/05 03:04:53;;;;;;;17.67;8.73;;;3.10;99.90;;;;;;4878179;29;20252;-70
2021/03/05 03:07:20;;;;;;;14.60;8.03;;;3.10;99.90;;;;;;4846261;29;20208;-70
2021/03/05 03:09:48;;;;;;;20.77;9.30;;;3.10;99.90;;;;;;4880208;29;20211;-70
2021/03/05 03:12:17;;;;;;;15.60;8.33;;;3.10;99.90;;;;;;4916556;29;20207;-70
2021/03/05 03:14:45;;;;;;;17.37;8.00;;;3.00;99.90;;;;;;4916969;29;20708;-70
2021/03/05 03:17:14;;;;;;;21.67;9.37;;;3.00;99.90;;;;;;4916288;29;20214;-70
2021/03/05 03:19:46;;;;;;;16.60;8.40;;;3.00;99.90;;;;;;4916745;29;20214;-70
2021/03/05 03:22:14;;;;;;;17.47;8.20;;;3.00;99.90;;;;;;4917150;29;20214;-70
2021/03/05 03:24:41;;;;;;;16.83;9.03;;;3.00;99.90;;;;;;4942817;29;20209;-70
2021/03/05 03:27:09;;;;;;;13.67;7.47;;;3.00;99.90;;;;;;4915679;29;20239;-71
2021/03/05 03:29:36;;;;;;;16.50;8.30;;;2.90;99.90;;;;;;4916274;29;20202;-70
2021/03/05 03:32:03;;;;;;;16.17;7.77;;;2.90;99.90;;;;;;4916443;29;20214;-70
2021/03/05 03:34:30;;;;;;;17.10;8.93;;;3.00;99.90;;;;;;4916401;29;20210;-70
2021/03/05 03:36:58;;;;;;;20.67;9.13;;;2.90;99.90;;;;;;4934857;29;20198;-70
2021/03/05 03:39:25;;;;;;;24.10;10.67;;;2.90;99.90;;;;;;4934454;29;20205;-70
2021/03/05 03:41:54;;;;;;;21.87;10.53;;;2.90;99.90;;;;;;4940752;29;20209;-70
2021/03/05 03:44:20;;;;;;;21.23;10.17;;;2.80;99.90;;;;;;4954088;29;20263;-70
2021/03/05 03:46:49;;;;;;;22.33;9.40;;;2.70;99.90;;;;;;4954061;29;20209;-70
2021/03/05 03:49:22;;;;;;;21.47;10.33;;;2.70;99.90;;;;;;4972210;28;20751;-70
2021/03/05 03:51:54;;;;;;;17.77;9.33;;;2.60;99.90;;;;;;4973888;28;20212;-70
2021/03/05 03:54:21;;;;;;;22.30;10.37;;;2.60;99.90;;;;;;4973635;28;20208;-70
2021/03/05 03:56:52;;;;;;;22.33;10.47;;;2.60;99.90;;;;;;4973212;28;20208;-71
2021/03/05 03:59:21;;;;;;;22.53;10.73;;;2.50;99.90;;;;;;5011834;28;20273;-70
2021/03/05 04:01:49;;;;;;;24.07;10.60;;;2.50;99.90;;;;;;5012778;28;20245;-70
2021/03/05 04:04:17;;;;;;;18.70;9.47;;;2.40;99.90;;;;;;5012039;28;20231;-70
2021/03/05 04:06:46;;;;;;;20.87;9.73;;;2.40;99.90;;;;;;5011957;28;20207;-70
2021/03/05 04:09:13;;;;;;;19.67;10.17;;;2.40;99.90;;;;;;5032046;28;20214;-70
2021/03/05 04:11:41;;;;;;;18.93;9.87;;;2.40;99.90;;;;;;5032152;28;20248;-70
2021/03/05 04:14:09;;;;;;;19.13;9.73;;;2.30;99.90;;;;;;5031460;28;20202;-70
2021/03/05 04:16:36;;;;;;;20.63;10.00;;;2.30;99.90;;;;;;5031739;28;20210;-70
2021/03/05 04:19:03;;;;;;;20.83;8.87;;;2.20;99.90;;;;;;5032194;28;20210;-70
2021/03/05 04:21:32;;;;;;;21.10;10.00;;;2.20;99.90;;;;;;5031531;28;20657;-70
2021/03/05 04:23:59;;;;;;;17.83;8.63;;;2.20;99.90;;;;;;5031257;28;20739;-71
2021/03/05 04:26:25;;;;;;;21.20;9.67;;;2.20;99.90;;;;;;5011376;28;20214;-71
2021/03/05 04:28:52;;;;;;;17.00;8.07;;;2.20;99.90;;;;;;5012077;28;20254;-70
2021/03/05 04:31:20;;;;;;;18.47;8.57;;;2.20;99.90;;;;;;4992199;28;20209;-70
2021/03/05 04:33:47;;;;;;;17.10;8.40;;;2.30;99.90;;;;;;4991911;28;20207;-71
2021/03/05 04:36:13;;;;;;;20.60;9.23;;;2.30;99.90;;;;;;4991984;28;20720;-70
2021/03/05 04:38:40;;;;;;;23.63;10.30;;;2.30;99.90;;;;;;5028964;28;20247;-70
2021/03/05 04:41:06;;;;;;;29.60;12.93;;;2.30;99.90;;;;;;5031637;28;20695;-70
2021/03/05 04:43:33;;;;;;;34.80;14.03;;;2.20;99.90;;;;;;5031279;28;20237;-70
2021/03/05 04:46:00;;;;;;;34.10;14.30;;;2.10;99.90;;;;;;5014283;28;20692;-71
2021/03/05 04:48:27;;;;;;;33.77;14.20;;;2.10;99.90;;;;;;4991702;28;20204;-70
2021/03/05 04:50:54;;;;;;;28.07;12.73;;;2.00;99.90;;;;;;4993482;28;20722;-70
2021/03/05 04:53:20;;;;;;;22.90;11.40;;;2.00;99.90;;;;;;4976233;28;20681;-70
2021/03/05 04:55:47;;;;;;;23.97;11.90;;;1.90;99.90;;;;;;4977036;28;20216;-70
2021/03/05 04:58:14;;;;;;;24.93;11.73;;;1.90;99.90;;;;;;4976382;28;20204;-70
2021/03/05 05:00:40;;;;;;;24.03;11.70;;;1.90;99.90;;;;;;4995712;28;20286;-70
2021/03/05 05:03:07;;;;;;;23.77;11.40;;;1.90;99.90;;;;;;4996092;28;20645;-70
2021/03/05 05:05:36;;;;;;;22.90;10.73;;;1.90;99.90;;;;;;4996059;28;20295;-70
2021/03/05 05:08:04;;;;;;;21.47;10.23;;;1.90;99.90;;;;;;4995607;28;20250;-70
2021/03/05 05:10:31;;;;;;;21.63;10.50;;;1.90;99.90;;;;;;4979105;28;20262;-71
2021/03/05 05:12:57;;;;;;;19.33;9.47;;;1.90;99.90;;;;;;4976651;28;20215;-70
2021/03/05 05:15:24;;;;;;;16.17;8.70;;;1.90;99.90;;;;;;4995394;28;20550;-70
2021/03/05 05:17:51;;;;;;;17.43;8.03;;;1.90;99.90;;;;;;5012160;28;20211;-70
2021/03/05 05:20:17;;;;;;;19.30;8.57;;;1.90;99.90;;;;;;4998785;28;20206;-70
2021/03/05 05:22:45;;;;;;;16.77;8.33;;;2.00;99.90;;;;;;4975768;28;20212;-70
2021/03/05 05:25:12;;;;;;;15.23;8.43;;;2.00;99.90;;;;;;4976405;28;20566;-71
2021/03/05 05:27:38;;;;;;;17.37;8.47;;;2.00;99.90;;;;;;4975602;28;20304;-71
2021/03/05 05:30:06;;;;;;;18.17;8.57;;;2.00;99.90;;;;;;4975985;28;20239;-71
2021/03/05 05:32:33;;;;;;;11.57;7.07;;;2.10;99.90;;;;;;4956648;28;20212;-71
2021/03/05 05:35:00;;;;;;;15.03;7.47;;;2.10;99.90;;;;;;4956422;28;20591;-71
2021/03/05 05:37:26;;;;;;;17.67;8.73;;;2.20;99.90;;;;;;4956965;29;20232;-71
2021/03/05 05:39:54;;;;;;;19.63;9.50;;;2.20;99.90;;;;;;4936870;29;20209;-70
2021/03/05 05:42:20;;;;;;;23.23;10.70;;;2.20;99.90;;;;;;4941967;28;20205;-71
2021/03/05 05:44:49;;;;;;;22.27;10.63;;;2.20;99.90;;;;;;4975742;28;20232;-71
2021/03/05 05:47:16;;;;;;;21.23;9.80;;;2.20;99.90;;;;;;4976080;28;20651;-71
2021/03/05 05:49:44;;;;;;;20.47;9.70;;;2.20;99.90;;;;;;4975666;28;20231;-70
2021/03/05 05:52:13;;;;;;;21.50;10.07;;;2.20;99.90;;;;;;4975356;28;20702;-71
2021/03/05 05:54:41;;;;;;;22.13;10.47;;;2.30;99.90;;;;;;4975383;28;20208;-70
2021/03/05 05:57:11;;;;;;;20.57;9.97;;;2.20;99.90;;;;;;4975902;28;20236;-71
2021/03/05 05:59:39;;;;;;;23.17;10.30;;;2.20;99.90;;;;;;4980286;28;20203;-71
2021/03/05 06:02:08;;;;;;;24.63;10.63;;;2.20;99.90;;;;;;4993534;28;20195;-71
2021/03/05 06:04:34;;;;;;;25.60;11.37;;;2.30;99.90;;;;;;4974910;28;20598;-71
2021/03/05 06:07:03;;;;;;;23.93;10.83;;;2.20;99.90;;;;;;4936949;29;20201;-71
2021/03/05 06:09:30;;;;;;;23.00;10.33;;;2.20;99.90;;;;;;4941910;29;20201;-70
2021/03/05 06:11:57;;;;;;;25.87;11.53;;;2.30;99.90;;;;;;4973385;28;20205;-71
2021/03/05 06:14:25;;;;;;;22.03;10.47;;;2.30;99.90;;;;;;4974972;28;20204;-71
2021/03/05 06:16:54;;;;;;;25.80;11.00;;;2.30;99.90;;;;;;4955989;29;20209;-71
2021/03/05 06:19:23;;;;;;;25.70;12.80;;;2.40;99.90;;;;;;4947931;28;20207;-72
2021/03/05 06:21:50;;;;;;;32.47;13.80;;;2.40;99.90;;;;;;4974881;28;20559;-71
2021/03/05 06:24:17;;;;;;;34.57;14.57;;;2.40;99.90;;;;;;4975291;28;20255;-71
2021/03/05 06:26:48;;;;;;;29.23;12.80;;;2.40;99.90;;;;;;4974705;28;20255;-71
2021/03/05 06:29:16;;;;;;;34.60;14.10;;;2.30;99.90;;;;;;4975285;28;20200;-71
2021/03/05 06:31:55;;;;;;;31.50;13.30;;;2.30;99.90;;;;;;4974520;28;20212;-71
2021/03/05 06:34:22;;;;;;;30.63;13.10;;;2.40;99.90;;;;;;4936135;29;20796;-71
2021/03/05 06:37:03;;;;;;;27.77;12.20;;;2.40;99.90;;;;;;4936275;29;20198;-71
2021/03/05 06:39:31;;;;;;;27.50;12.37;;;2.40;99.90;;;;;;4936404;29;20217;-71
2021/03/05 06:41:59;;;;;;;27.33;11.70;;;2.50;99.90;;;;;;4916864;29;20736;-71
2021/03/05 06:44:26;;;;;;;27.97;12.20;;;2.50;99.90;;;;;;4917138;29;20233;-71
2021/03/05 06:46:53;;;;;;;29.67;13.63;;;2.50;99.90;;;;;;4919221;29;20290;-71
2021/03/05 06:49:21;;;;;;;29.33;13.03;;;2.50;99.90;;;;;;4899477;29;20206;-71
2021/03/05 06:51:55;;;;;;;30.20;13.23;;;2.50;99.90;;;;;;4917024;29;20213;-71
2021/03/05 06:54:22;;;;;;;29.80;13.07;;;2.60;99.90;;;;;;4917058;29;20319;-71
2021/03/05 06:56:50;;;;;;;26.90;13.00;;;2.60;99.90;;;;;;4917393;29;20348;-71
2021/03/05 06:59:19;;;;;;;28.37;12.70;;;2.60;99.90;;;;;;4917200;29;20214;-71
2021/03/05 07:01:48;;;;;;;34.03;14.33;;;2.60;99.90;;;;;;4917138;29;20214;-71
2021/03/05 07:04:18;;;;;;;37.20;15.10;;;2.60;99.90;;;;;;4916579;29;20226;-71
2021/03/05 07:06:45;;;;;;;33.53;15.83;;;2.60;99.90;;;;;;4916609;29;20534;-71
2021/03/05 07:09:22;;;;;;;38.23;16.90;;;2.60;99.90;;;;;;4897740;29;20206;-71
2021/03/05 07:11:50;;;;;;;28.00;14.70;;;2.50;99.90;;;;;;4897841;29;20207;-71
2021/03/05 07:14:17;;;;;;;29.03;14.03;;;2.40;99.90;;;;;;4915981;29;20210;-71
2021/03/05 07:16:48;;;;;;;28.70;12.83;;;2.30;99.90;;;;;;4916973;29;20234;-71
2021/03/05 07:19:17;;;;;;;22.37;12.10;;;2.20;99.90;;;;;;4916929;29;20230;-71
2021/03/05 07:21:46;;;;;;;23.43;11.97;;;2.30;99.90;;;;;;4916509;29;20666;-71
2021/03/05 07:24:15;;;;;;;20.87;9.80;;;2.30;99.90;;;;;;4916798;29;20233;-71
2021/03/05 07:26:57;;;;;;;16.13;8.30;;;2.30;99.90;;;;;;4934709;28;20236;-71
2021/03/05 07:29:27;;;;;;;14.63;8.40;;;2.10;99.90;;;;;;4993128;28;20230;-71
2021/03/05 07:32:02;;;;;;;16.97;8.40;;;2.00;99.90;;;;;;4993106;28;20737;-71
2021/03/05 07:34:32;;;;;;;13.60;8.37;;;2.00;99.90;;;;;;5012917;28;20226;-71
2021/03/05 07:37:01;;;;;;;15.33;8.63;;;2.00;99.90;;;;;;5019547;28;20214;-71
2021/03/05 07:39:31;;;;;;;14.30;8.50;;;2.00;99.90;;;;;;5012420;28;20199;-70
2021/03/05 07:41:58;;;;;;;16.20;9.67;;;2.10;99.90;;;;;;4993215;28;20206;-71
2021/03/05 07:44:26;;;;;;;18.37;10.13;;;2.10;99.90;;;;;;4992804;28;20239;-70
2021/03/05 07:46:54;;;;;;;18.27;10.70;;;2.10;99.90;;;;;;5016013;28;20200;-70
2021/03/05 07:49:30;;;;;;;17.83;9.87;;;2.10;99.90;;;;;;5032241;28;20256;-70
2021/03/05 07:51:59;;;;;;;18.73;10.00;;;2.10;99.90;;;;;;5032297;28;20224;-70
2021/03/05 07:54:47;;;;;;;17.33;9.67;;;2.10;99.90;;;;;;5012557;28;20744;-70
2021/03/05 07:57:47;;;;;;;18.40;9.30;;;2.00;99.90;;;;;;4972184;28;20223;-71
2021/03/05 08:00:33;;;;;;;14.90;8.20;;;2.00;99.90;;;;;;4992833;28;20196;-71
2021/03/05 08:02:59;;;;;;;16.93;9.67;;;1.90;99.90;;;;;;4914831;29;20633;-71
2021/03/05 08:05:39;;;;;;;13.63;7.93;;;1.90;99.90;;;;;;4915514;29;20261;-71
2021/03/05 08:08:12;;;;;;;12.97;7.40;;;1.90;99.90;;;;;;4915785;29;20261;-71
2021/03/05 08:10:40;;;;;;;11.70;6.87;;;1.70;99.90;;;;;;4926141;29;20206;-70
2021/03/05 08:13:47;;;;;;;10.93;5.97;;;1.70;99.90;;;;;;4945001;29;20228;-70
2021/03/05 08:16:47;;;;;;;8.60;5.80;;;1.70;99.90;;;;;;4954333;29;20217;-71
2021/03/05 08:19:44;;;;;;;8.97;5.20;;;1.60;99.90;;;;;;4953695;29;20213;-70
2021/03/05 08:22:13;;;;;;;9.17;5.20;;;1.60;99.90;;;;;;4954168;29;20291;-71
2021/03/05 08:24:41;;;;;;;9.07;5.27;;;1.60;99.90;;;;;;4953191;28;20236;-71
2021/03/05 08:27:13;;;;;;;10.20;5.20;;;1.70;99.90;;;;;;4953766;29;20253;-71
2021/03/05 08:29:50;;;;;;;8.13;4.10;;;1.70;99.90;;;;;;4953780;29;20249;-71
2021/03/05 08:33:05;;;;;;;5.83;3.70;;;1.70;99.90;;;;;;4966634;28;20649;-71
2021/03/05 08:35:49;;;;;;;8.07;4.17;;;1.70;99.90;;;;;;4972773;28;20259;-71
2021/03/05 08:38:35;;;;;;;9.03;4.60;;;1.70;99.90;;;;;;4975828;28;20207;-71
2021/03/05 08:41:04;;;;;;;7.10;4.10;;;1.60;99.90;;;;;;5043436;28;20205;-71
2021/03/05 08:43:32;;;;;;;7.03;4.33;;;1.60;99.90;;;;;;5011566;28;20219;-71
2021/03/05 08:46:02;;;;;;;9.83;5.33;;;1.60;99.90;;;;;;5011515;28;20246;-71
2021/03/05 08:48:34;;;;;;;11.03;4.67;;;1.60;99.90;;;;;;5011756;28;20199;-71
2021/03/05 08:51:06;;;;;;;7.23;4.27;;;1.60;99.90;;;;;;5011818;28;20199;-71
2021/03/05 08:53:45;;;;;;;7.37;4.63;;;1.60;99.90;;;;;;4972840;28;20659;-71
2021/03/05 08:56:23;;;;;;;7.00;4.40;;;1.50;99.90;;;;;;4973369;28;20736;-71
2021/03/05 08:59:00;;;;;;;7.67;4.63;;;1.50;99.90;;;;;;4973015;28;20666;-71
2021/03/05 09:01:31;;;;;;;12.63;5.47;;;1.60;99.90;;;;;;4972985;28;20215;-71
2021/03/05 09:04:15;;;;;;;10.07;5.00;;;1.70;99.90;;;;;;4953658;29;20225;-71
2021/03/05 09:06:52;;;;;;;8.40;5.33;;;1.80;99.90;;;;;;4934073;29;20228;-71
2021/03/05 09:09:23;;;;;;;11.57;5.87;;;2.00;99.90;;;;;;4934160;29;20201;-71
2021/03/05 09:12:05;;;;;;;13.17;6.87;;;2.20;99.90;;;;;;4934361;29;20213;-71
2021/03/05 09:14:32;;;;;;;13.63;6.63;;;2.30;99.90;;;;;;4943552;29;20216;-71
2021/03/05 09:17:00;;;;;;;16.87;7.47;;;2.40;99.90;;;;;;4962603;28;20209;-71
2021/03/05 09:19:35;;;;;;;13.70;7.23;;;2.50;99.90;;;;;;4972979;28;20626;-71
2021/03/05 09:22:13;;;;;;;9.83;6.33;;;2.60;99.90;;;;;;4972260;28;20200;-71
2021/03/05 09:24:52;;;;;;;13.67;7.80;;;2.60;99.90;;;;;;4972848;28;20263;-71
2021/03/05 09:27:20;;;;;;;13.20;8.30;;;2.50;99.90;;;;;;4972222;28;20583;-72
2021/03/05 09:29:46;;;;;;;16.83;9.13;;;2.40;99.90;;;;;;4981537;28;20291;-71
2021/03/05 09:32:13;;;;;;;15.67;8.93;;;2.30;99.90;;;;;;4992029;28;20238;-71
2021/03/05 09:34:50;;;;;;;17.43;8.53;;;2.30;99.90;;;;;;5005876;28;20202;-72
2021/03/05 09:37:18;;;;;;;13.97;7.70;;;2.40;99.90;;;;;;5031279;28;20202;-72
2021/03/05 09:39:46;;;;;;;14.63;7.70;;;2.50;99.90;;;;;;4995503;28;20701;-71
2021/03/05 09:42:13;;;;;;;15.10;8.23;;;2.70;99.90;;;;;;4995457;28;20204;-72
2021/03/05 09:44:44;;;;;;;14.50;8.53;;;2.90;99.90;;;;;;5036737;28;20715;-71
2021/03/05 09:47:12;;;;;;;16.27;8.30;;;3.20;99.90;;;;;;5054266;28;20220;-71
2021/03/05 09:49:39;;;;;;;12.30;7.93;;;3.50;99.90;;;;;;5054443;28;20193;-72
2021/03/05 09:52:24;;;;;;;13.87;8.40;;;3.90;99.90;;;;;;5051887;28;20212;-72
2021/03/05 09:54:54;;;;;;;15.23;8.70;;;4.30;99.90;;;;;;5034930;28;20203;-72
2021/03/05 09:57:25;;;;;;;15.83;9.30;;;4.50;99.90;;;;;;4994765;28;20714;-72
2021/03/05 09:59:51;;;;;;;14.63;9.17;;;4.50;99.90;;;;;;4975338;28;20204;-72
2021/03/05 10:02:18;;;;;;;19.37;8.93;;;4.50;99.90;;;;;;4975488;28;20205;-72
2021/03/05 10:04:46;;;;;;;16.00;8.60;;;4.30;99.90;;;;;;4975553;28;20753;-72
2021/03/05 10:07:13;;;;;;;15.40;8.00;;;4.20;99.90;;;;;;4956782;28;20205;-71
2021/03/05 10:09:39;;;;;;;12.33;7.10;;;4.10;99.90;;;;;;4976849;28;20212;-72
2021/03/05 10:12:06;;;;;;;14.80;7.50;;;4.00;99.90;;;;;;4994436;28;20751;-72
2021/03/05 10:14:36;;;;;;;15.57;7.57;;;4.00;99.90;;;;;;4974938;28;20243;-71
2021/03/05 10:17:10;;;;;;;12.70;7.03;;;4.00;99.90;;;;;;4955566;29;20295;-71
2021/03/05 10:19:39;;;;;;;13.53;7.17;;;4.00;99.90;;;;;;4885844;29;20569;-70
2021/03/05 10:22:07;;;;;;;14.53;7.53;;;4.10;99.90;;;;;;4917175;29;20337;-70
2021/03/05 10:24:34;;;;;;;14.33;7.23;;;4.10;99.90;;;;;;4917381;29;20226;-70
2021/03/05 10:27:11;;;;;;;11.97;7.53;;;4.10;99.90;;;;;;4862430;29;20251;-72
2021/03/05 10:29:40;;;;;;;13.50;7.57;;;4.00;99.90;;;;;;4880412;29;20562;-71
2021/03/05 10:32:23;;;;;;;14.30;7.80;;;3.80;99.90;;;;;;4879809;29;20706;-71
2021/03/05 10:34:51;;;;;;;12.87;7.03;;;3.70;99.90;;;;;;4898565;29;20334;-71
2021/03/05 10:37:18;;;;;;;13.97;7.60;;;3.70;99.90;;;;;;4898403;29;20211;-72
2021/03/05 10:39:46;;;;;;;12.53;7.10;;;3.70;99.90;;;;;;4917723;29;20214;-70
2021/03/05 10:42:14;;;;;;;11.80;7.23;;;3.80;99.90;;;;;;4905191;29;20207;-71
2021/03/05 10:44:43;;;;;;;12.83;6.73;;;3.90;99.90;;;;;;4936482;29;20544;-72
2021/03/05 10:47:12;;;;;;;13.47;7.33;;;4.10;99.90;;;;;;4938090;29;20248;-71
2021/03/05 10:49:40;;;;;;;11.43;6.87;;;4.30;99.90;;;;;;4953142;28;20201;-72
2021/03/05 10:52:10;;;;;;;13.53;6.93;;;4.40;99.90;;;;;;4954989;29;20205;-72
2021/03/05 10:54:36;;;;;;;11.83;6.50;;;4.40;99.90;;;;;;4955692;29;20205;-71
2021/03/05 10:57:03;;;;;;;13.40;7.00;;;4.40;99.90;;;;;;4955095;29;20213;-72
2021/03/05 10:59:30;;;;;;;11.27;6.87;;;4.40;99.90;;;;;;4974164;28;20200;-71
2021/03/05 11:01:58;;;;;;;13.33;7.07;;;4.40;99.90;;;;;;4974142;28;20216;-71
2021/03/05 11:04:26;;;;;;;14.27;7.50;;;4.40;99.90;;;;;;4974126;28;20220;-71
2021/03/05 11:06:53;;;;;;;11.80;6.63;;;4.50;99.90;;;;;;4974124;28;20204;-72
2021/03/05 11:09:22;;;;;;;11.70;6.93;;;4.70;99.90;;;;;;4935436;29;20205;-71
2021/03/05 11:11:48;;;;;;;12.23;6.63;;;4.80;99.90;;;;;;4935633;29;20205;-72
2021/03/05 11:14:15;;;;;;;12.17;6.67;;;4.90;99.90;;;;;;4935423;29;20609;-72
2021/03/05 11:16:43;;;;;;;13.07;7.10;;;4.90;99.90;;;;;;4935641;29;20214;-72
2021/03/05 11:19:11;;;;;;;14.03;7.57;;;4.90;99.90;;;;;;4935143;29;20668;-72
2021/03/05 11:21:38;;;;;;;14.30;7.97;;;4.90;99.90;;;;;;4937699;28;20357;-72
2021/03/05 11:24:06;;;;;;;14.07;8.40;;;5.00;99.90;;;;;;4968969;28;20221;-71
2021/03/05 11:26:33;;;;;;;15.90;8.73;;;4.90;99.90;;;;;;4973589;28;20772;-70
2021/03/05 11:28:59;;;;;;;15.00;8.47;;;4.70;99.90;;;;;;4935499;29;20213;-71
2021/03/05 11:31:26;;;;;;;16.57;8.70;;;4.60;99.90;;;;;;4935401;29;20719;-71
2021/03/05 11:33:53;;;;;;;13.47;8.17;;;4.50;99.90;;;;;;4935254;29;20284;-71
2021/03/05 11:36:21;;;;;;;12.30;7.13;;;4.50;99.90;;;;;;4935293;29;20699;-71
2021/03/05 11:38:49;;;;;;;13.77;7.40;;;4.50;99.90;;;;;;4935044;29;20209;-72
2021/03/05 11:41:16;;;;;;;9.97;6.30;;;4.50;99.90;;;;;;4932550;29;20327;-71
2021/03/05 11:43:44;;;;;;;17.13;7.27;;;4.50;99.90;;;;;;4934814;29;20225;-71
2021/03/05 11:46:11;;;;;;;14.30;6.53;;;4.50;99.90;;;;;;4951766;29;20806;-71
2021/03/05 11:48:37;;;;;;;13.07;6.50;;;4.60;99.90;;;;;;4954003;29;20205;-71
2021/03/05 11:51:04;;;;;;;11.57;5.80;;;4.60;99.90;;;;;;4951157;29;20205;-71
2021/03/05 11:53:32;;;;;;;10.30;6.17;;;4.50;99.90;;;;;;4954502;29;20213;-71
2021/03/05 11:55:59;;;;;;;9.43;6.10;;;4.40;99.90;;;;;;4972891;28;20758;-71
2021/03/05 11:58:25;;;;;;;12.80;6.30;;;4.30;99.90;;;;;;4992531;28;20246;-71
2021/03/05 12:00:52;;;;;;;13.57;6.13;;;4.30;99.90;;;;;;4992534;28;20199;-71
2021/03/05 12:03:19;;;;;;;9.17;5.43;;;4.20;99.90;;;;;;5011679;28;20672;-71
2021/03/05 12:05:45;;;;;;;9.33;5.10;;;4.20;99.90;;;;;;5012296;28;20245;-71
2021/03/05 12:08:13;;;;;;;7.30;4.93;;;4.30;99.90;;;;;;4992406;28;20215;-71
2021/03/05 12:10:40;;;;;;;6.57;4.40;;;4.30;99.90;;;;;;4991957;28;20692;-71
2021/03/05 12:13:07;;;;;;;7.37;4.73;;;4.30;99.90;;;;;;4975874;28;20212;-70
2021/03/05 12:15:34;;;;;;;9.47;5.17;;;4.40;99.90;;;;;;4989548;28;20203;-71
2021/03/05 12:18:00;;;;;;;10.70;5.10;;;4.40;99.90;;;;;;5011500;28;20675;-71
2021/03/05 12:20:27;;;;;;;8.57;4.90;;;4.60;99.90;;;;;;4991981;28;20210;-70
2021/03/05 12:22:54;;;;;;;9.97;4.57;;;4.60;99.90;;;;;;4992129;28;20211;-71
2021/03/05 12:25:20;;;;;;;9.37;4.40;;;4.60;99.90;;;;;;4992622;28;20566;-71
2021/03/05 12:27:48;;;;;;;7.17;4.13;;;4.60;99.90;;;;;;4952888;28;20245;-71
2021/03/05 12:30:15;;;;;;;4.17;3.67;;;4.50;99.90;;;;;;4937873;29;20755;-72
2021/03/05 12:32:44;;;;;;;5.70;3.60;;;4.60;99.90;;;;;;4953886;29;20228;-72
2021/03/05 12:35:12;;;;;;;7.10;3.97;;;4.70;99.90;;;;;;4950207;29;20209;-72
2021/03/05 12:37:38;;;;;;;5.53;3.73;;;4.70;99.90;;;;;;4972832;28;20204;-72
2021/03/05 12:40:07;;;;;;;6.83;3.83;;;4.60;99.90;;;;;;4972973;28;20212;-71
2021/03/05 12:42:34;;;;;;;4.73;3.60;;;4.50;99.90;;;;;;4989379;28;20200;-70
2021/03/05 12:45:02;;;;;;;5.37;3.77;;;4.50;99.90;;;;;;4996098;28;20280;-70
2021/03/05 12:47:29;;;;;;;6.67;3.47;;;4.40;99.90;;;;;;5011305;28;20216;-71
2021/03/05 12:49:55;;;;;;;8.03;4.50;;;4.40;99.90;;;;;;4994602;28;20200;-71
2021/03/05 12:52:22;;;;;;;9.20;4.80;;;4.20;99.90;;;;;;5009556;28;20215;-72
2021/03/05 12:54:49;;;;;;;6.97;4.37;;;4.20;99.90;;;;;;4972796;28;20204;-71